Time;durP1;ratioP1;P1;durP2;ratioP2;P2;SDS_P1;SDS_P2;PMS_P1;PMS_P2;Temp;Humidity;BMP_temperature;BMP_pressure;BME280_temperature;BME280_humidity;BME280_pressure;Samples;Min_cycle;Max_cycle;Signal;HPM_P1;HPM_P2
2022/11/09 07:20:28;;;;;;;;;3.50;2.75;;;;;12.66;100.00;100809.00;5972294;22;51961;-73
2022/11/09 07:22:54;;;;;;;;;1.25;1.00;;;;;11.51;100.00;100638.06;6222273;22;50149;-73
2022/11/09 07:25:20;;;;;;;;;3.00;2.00;;;;;12.46;100.00;100785.94;6260291;22;50028;-74
2022/11/09 07:27:45;;;;;;;;;5.00;4.00;;;;;13.05;100.00;100880.66;6268106;22;49821;-74
2022/11/09 07:30:11;;;;;;;;;4.25;2.50;;;;;12.48;100.00;100768.41;6269391;22;49804;-75
2022/11/09 07:32:39;;;;;;;;;3.00;2.75;;;;;13.05;100.00;100871.88;6266383;22;49884;-74
2022/11/09 07:35:07;;;;;;;;;2.50;2.50;;;;;12.64;100.00;100803.69;6265553;22;49918;-74
2022/11/09 07:37:32;;;;;;;;;2.00;2.00;;;;;12.92;100.00;100847.09;6271069;22;49647;-74
2022/11/09 07:39:58;;;;;;;;;2.00;2.00;;;;;13.12;100.00;100874.59;6272848;22;49790;-76
2022/11/09 07:42:24;;;;;;;;;3.00;1.75;;;;;13.12;100.00;100866.69;6267346;22;49806;-74
2022/11/09 07:44:50;;;;;;;;;3.00;2.50;;;;;13.00;100.00;100852.47;6267394;22;50047;-80
2022/11/09 07:47:17;;;;;;;;;2.50;1.50;;;;;13.09;100.00;100853.47;6269434;22;49730;-77
2022/11/09 07:49:42;;;;;;;;;1.75;1.75;;;;;12.49;100.00;100785.09;6266001;22;49645;-78
2022/11/09 07:52:07;;;;;;;;;1.00;1.00;;;;;13.29;100.00;100895.91;6265456;22;49501;-73
2022/11/09 07:54:33;;;;;;;;;3.75;1.00;;;;;12.89;100.00;100799.63;6266788;22;49603;-79
2022/11/09 07:56:58;;;;;;;;;0.50;0.50;;;;;13.43;100.00;100894.31;6267328;22;49747;-78
2022/11/09 07:59:24;;;;;;;;;4.00;3.25;;;;;13.45;100.00;100889.06;6266694;22;49772;-75
2022/11/09 08:01:49;;;;;;;;;8.25;1.25;;;;;12.74;100.00;100768.75;6267721;22;50062;-78
2022/11/09 08:04:15;;;;;;;;;6.00;3.75;;;;;13.43;100.00;100904.00;6266479;22;50192;-77
2022/11/09 08:06:40;;;;;;;;;1.00;1.00;;;;;13.53;100.00;100897.94;6267802;22;49902;-76
2022/11/09 08:09:06;;;;;;;;;5.00;3.00;;;;;11.99;100.00;100661.59;6267102;22;49689;-78
2022/11/09 08:11:31;;;;;;;;;4.00;2.00;;;;;13.48;100.00;100896.13;6272095;22;49999;-82
2022/11/09 08:13:57;;;;;;;;;4.25;2.25;;;;;11.95;100.00;100615.03;6273972;22;50812;-81
2022/11/09 08:16:22;;;;;;;;;4.00;2.00;;;;;13.64;100.00;100911.25;6273650;22;49655;-77
2022/11/09 08:18:49;;;;;;;;;4.00;2.75;;;;;13.57;100.00;100883.91;6275154;22;49590;-80
2022/11/09 08:21:15;;;;;;;;;4.50;3.00;;;;;13.56;100.00;100868.97;6279100;22;49346;-82
2022/11/09 08:23:40;;;;;;;;;1.50;1.50;;;;;13.67;100.00;100896.31;6279395;22;49757;-85
2022/11/09 08:26:06;;;;;;;;;3.50;2.00;;;;;13.26;100.00;100803.59;6275449;22;49589;-84
2022/11/09 08:28:33;;;;;;;;;1.00;1.00;;;;;13.85;100.00;100905.31;6267951;22;49606;-82
2022/11/09 08:31:01;;;;;;;;;2.00;2.00;;;;;13.44;100.00;100831.91;6268202;22;49737;-78
2022/11/09 08:33:28;;;;;;;;;1.00;1.00;;;;;13.91;100.00;100905.38;6268386;22;50112;-75
2022/11/09 08:35:53;;;;;;;;;3.00;2.00;;;;;13.93;100.00;100908.91;6267482;22;49657;-76
2022/11/09 08:38:19;;;;;;;;;3.25;2.00;;;;;13.96;100.00;100923.00;6267639;22;49592;-77
2022/11/09 08:40:44;;;;;;;;;1.00;0.75;;;;;14.01;100.00;100931.88;6268783;22;50150;-71
2022/11/09 08:43:10;;;;;;;;;3.25;1.00;;;;;13.77;100.00;100877.94;6271890;22;50617;-73
2022/11/09 08:45:38;;;;;;;;;2.00;2.00;;;;;14.13;100.00;100917.00;6267028;22;49676;-73
2022/11/09 08:48:04;;;;;;;;;4.50;1.75;;;;;13.81;100.00;100866.56;6266696;22;49884;-71
2022/11/09 08:50:31;;;;;;;;;2.75;1.75;;;;;14.16;100.00;100923.19;6267001;22;49933;-70
2022/11/09 08:52:56;;;;;;;;;2.25;2.25;;;;;14.20;100.00;100938.19;6269331;22;50530;-71
2022/11/09 08:55:23;;;;;;;;;2.75;2.00;;;;;14.27;100.00;100925.91;6269486;22;49667;-72
2022/11/09 08:57:52;;;;;;;;;3.75;2.50;;;;;14.30;100.00;100921.56;6268779;22;49611;-70
2022/11/09 09:00:18;;;;;;;;;2.50;1.00;;;;;13.99;100.00;100869.34;6276601;22;49645;-71
2022/11/09 09:02:43;;;;;;;;;2.50;2.50;;;;;14.12;100.00;100891.47;6269507;22;50554;-70
2022/11/09 09:05:09;;;;;;;;;3.25;1.00;;;;;14.44;100.00;100949.81;6267779;22;49432;-71
2022/11/09 09:07:34;;;;;;;;;1.00;1.00;;;;;14.49;100.00;100946.41;6269126;22;49821;-73
2022/11/09 09:10:00;;;;;;;;;2.75;0.75;;;;;14.45;98.82;100962.19;6267289;22;49775;-73
2022/11/09 09:12:25;;;;;;;;;2.25;1.00;;;;;14.26;99.23;100901.25;6265153;22;51229;-74
2022/11/09 09:14:50;;;;;;;;;3.50;2.00;;;;;14.55;98.33;100966.66;6267572;22;49688;-76
2022/11/09 09:17:16;;;;;;;;;3.25;3.25;;;;;14.25;98.62;100896.84;6269713;22;49747;-72
2022/11/09 09:19:41;;;;;;;;;3.75;2.00;;;;;13.23;97.91;100698.13;6266507;22;49751;-73
2022/11/09 09:22:06;;;;;;;;;3.00;2.00;;;;;14.78;97.85;100957.19;6263916;22;49862;-74
2022/11/09 09:24:32;;;;;;;;;3.25;2.50;;;;;14.08;97.07;100843.03;6268640;22;50290;-72
2022/11/09 09:26:57;;;;;;;;;2.25;1.00;;;;;13.71;95.65;100770.63;6267614;22;49533;-73
2022/11/09 09:29:22;;;;;;;;;3.75;2.50;;;;;14.82;94.70;100937.81;6266135;22;50050;-73
2022/11/09 09:31:48;;;;;;;;;1.00;1.00;;;;;14.60;94.69;100893.63;6266525;22;50919;-72
2022/11/09 09:34:14;;;;;;;;;3.00;2.00;;;;;14.08;94.00;100781.44;6266974;22;49704;-72
2022/11/09 09:36:39;;;;;;;;;2.75;2.75;;;;;14.97;92.87;100936.16;6267089;22;49850;-72
2022/11/09 09:39:05;;;;;;;;;2.00;1.00;;;;;13.81;92.31;100724.09;6267078;22;49555;-72
2022/11/09 09:41:33;;;;;;;;;5.50;3.75;;;;;15.33;92.60;100969.81;6266612;22;50610;-72
2022/11/09 09:44:05;;;;;;;;;3.00;2.00;;;;;14.58;91.21;100848.72;6266543;22;49880;-73
2022/11/09 09:46:38;;;;;;;;;3.00;1.00;;;;;15.45;91.21;100965.47;6266833;22;49553;-72
2022/11/09 09:49:14;;;;;;;;;4.75;3.00;;;;;15.50;90.36;100965.47;6266917;22;49679;-72
2022/11/09 09:52:09;;;;;;;;;1.25;1.25;;;;;15.65;89.12;100981.47;6266625;22;51209;-74
2022/11/09 09:54:42;;;;;;;;;3.00;3.00;;;;;15.81;88.38;100982.38;6266484;22;49676;-73
2022/11/09 09:57:17;;;;;;;;;1.75;1.00;;;;;14.66;87.79;100774.75;6266973;22;49774;-73
2022/11/09 09:59:48;;;;;;;;;4.00;2.00;;;;;16.06;86.05;100985.97;6267004;22;50056;-73
2022/11/09 10:02:19;;;;;;;;;0.75;0.50;;;;;16.07;84.26;101003.63;6266455;22;49788;-74
2022/11/09 10:04:45;;;;;;;;;4.25;3.50;;;;;16.08;84.20;100986.84;6266750;22;49549;-72
2022/11/09 10:07:27;;;;;;;;;5.25;3.00;;;;;16.18;83.05;101006.28;6266802;22;49910;-73
2022/11/09 10:09:52;;;;;;;;;1.75;0.50;;;;;16.18;82.61;101014.25;6267143;22;49778;-72
2022/11/09 10:12:32;;;;;;;;;1.00;1.00;;;;;16.24;82.10;101015.16;6266906;22;50493;-73
2022/11/09 10:15:10;;;;;;;;;1.75;1.75;;;;;16.17;81.73;100988.63;6265307;22;50044;-72
2022/11/09 10:18:17;;;;;;;;;1.25;1.00;;;;;16.11;81.58;100984.19;6266630;22;49815;-72
2022/11/09 10:21:25;;;;;;;;;2.50;1.50;;;;;16.29;79.35;101020.44;6271177;22;49478;-72
2022/11/09 10:24:02;;;;;;;;;1.75;1.25;;;;;16.40;79.92;101029.28;6265398;22;50480;-71
2022/11/09 10:26:40;;;;;;;;;1.50;1.50;;;;;16.40;79.42;101039.88;6265188;22;49933;-73
2022/11/09 10:29:20;;;;;;;;;3.25;2.00;;;;;16.35;79.23;101027.53;6266352;22;50036;-72
2022/11/09 10:31:47;;;;;;;;;2.00;1.00;;;;;15.97;79.26;100968.31;6267087;22;49561;-72
2022/11/09 10:34:19;;;;;;;;;1.00;1.00;;;;;16.46;78.88;101041.66;6269879;22;50549;-73
2022/11/09 10:37:18;;;;;;;;;3.75;1.00;;;;;16.50;78.15;101035.47;6272748;22;49704;-71
2022/11/09 10:39:48;;;;;;;;;3.00;1.25;;;;;16.71;77.67;101056.75;6267159;22;49572;-72
2022/11/09 10:42:13;;;;;;;;;2.00;1.50;;;;;16.64;77.72;101025.78;6274058;22;49537;-72
2022/11/09 10:44:39;;;;;;;;;2.00;2.00;;;;;15.62;77.29;100837.66;6267345;22;52490;-74
2022/11/09 10:47:08;;;;;;;;;1.50;1.50;;;;;16.35;77.04;100953.34;6271303;22;49743;-73
2022/11/09 10:49:34;;;;;;;;;2.00;2.00;;;;;16.57;77.37;100977.19;6266948;22;49593;-71
2022/11/09 10:52:00;;;;;;;;;4.00;2.25;;;;;16.71;76.05;100985.19;6270105;22;49553;-72
2022/11/09 10:54:33;;;;;;;;;0.75;0.75;;;;;17.11;76.10;101057.59;6269532;22;49644;-73
2022/11/09 10:57:01;;;;;;;;;3.75;2.75;;;;;16.87;75.33;101036.41;6267227;22;49660;-73
2022/11/09 10:59:33;;;;;;;;;4.00;4.00;;;;;16.99;74.93;101062.06;6269248;22;49777;-73
2022/11/09 11:01:58;;;;;;;;;4.75;3.00;;;;;15.60;74.64;100836.72;6268030;22;49907;-74
2022/11/09 11:04:25;;;;;;;;;4.25;4.25;;;;;16.62;74.96;100990.44;6266213;22;49836;-74
2022/11/09 11:06:50;;;;;;;;;4.50;4.00;;;;;16.01;75.09;100906.50;6267696;22;49842;-74
2022/11/09 11:09:19;;;;;;;;;4.25;3.00;;;;;16.34;74.44;100933.03;6267458;22;49953;-75
2022/11/09 11:11:45;;;;;;;;;2.25;2.00;;;;;16.87;73.45;101002.81;6267524;22;49449;-74
2022/11/09 11:14:13;;;;;;;;;4.50;3.00;;;;;17.11;74.02;101012.50;6266576;22;49677;-73
2022/11/09 11:16:40;;;;;;;;;4.50;2.50;;;;;17.17;73.44;101001.88;6265823;22;49597;-73
2022/11/09 11:19:35;;;;;;;;;3.00;3.00;;;;;17.17;72.19;101011.59;6265985;22;49518;-74
2022/11/09 11:22:22;;;;;;;;;3.25;2.50;;;;;17.41;72.19;101054.00;6265638;22;49786;-74
2022/11/09 11:24:53;;;;;;;;;4.50;1.75;;;;;17.43;72.58;101057.53;6269535;22;50420;-74
2022/11/09 11:27:27;;;;;;;;;3.00;2.00;;;;;16.36;71.46;100878.28;6269820;22;49763;-74
2022/11/09 11:30:02;;;;;;;;;5.50;2.00;;;;;17.47;71.17;101050.47;6265987;22;49788;-75
2022/11/09 11:32:28;;;;;;;;;2.25;2.00;;;;;17.50;71.68;101061.06;6276136;22;49682;-73
2022/11/09 11:34:53;;;;;;;;;3.00;1.00;;;;;17.37;71.06;101035.44;6268456;22;49699;-76
2022/11/09 11:37:28;;;;;;;;;3.00;3.00;;;;;17.52;70.97;101059.28;6271845;22;49816;-72
2022/11/09 11:40:01;;;;;;;;;2.00;2.00;;;;;17.25;70.87;101028.38;6265347;22;50132;-71
2022/11/09 11:42:35;;;;;;;;;1.50;1.00;;;;;17.35;71.27;101054.00;6266520;22;49694;-68
2022/11/09 11:45:15;;;;;;;;;2.25;1.00;;;;;17.27;71.69;101055.78;6268034;22;49648;-75
2022/11/09 11:48:02;;;;;;;;;1.50;1.50;;;;;17.28;72.05;101062.00;6265680;22;49742;-73
2022/11/09 11:51:05;;;;;;;;;4.50;3.00;;;;;17.30;72.85;101054.94;6265613;22;50042;-77
2022/11/09 11:53:49;;;;;;;;;3.50;2.75;;;;;17.28;72.44;101054.06;6266389;22;49781;-82
2022/11/09 11:56:32;;;;;;;;;3.50;0.50;;;;;16.95;73.24;101016.06;6265968;22;50861;-73
2022/11/09 11:59:11;;;;;;;;;3.00;2.00;;;;;16.50;73.31;100932.13;6263972;22;49545;-73
2022/11/09 12:02:08;;;;;;;;;4.50;4.00;;;;;16.92;73.46;101021.38;6266576;22;49750;-73
2022/11/09 12:04:47;;;;;;;;;1.75;1.50;;;;;17.13;73.49;101068.22;6265724;22;49664;-75
2022/11/09 12:07:19;;;;;;;;;3.50;2.00;;;;;17.14;72.57;101065.56;6265704;22;49816;-73
2022/11/09 12:10:16;;;;;;;;;2.00;1.00;;;;;17.07;72.77;101063.78;6265526;22;49588;-74
2022/11/09 12:12:56;;;;;;;;;1.75;1.75;;;;;17.15;72.78;101067.31;6265619;22;49668;-75
2022/11/09 12:15:42;;;;;;;;;4.00;1.00;;;;;17.15;73.25;101062.00;6266524;22;49858;-73
2022/11/09 12:18:46;;;;;;;;;2.50;2.50;;;;;16.36;72.48;100903.00;6265313;22;50523;-74
2022/11/09 12:21:49;;;;;;;;;2.75;2.75;;;;;17.42;71.54;101070.81;6265488;22;49693;-77
2022/11/09 12:24:20;;;;;;;;;3.00;3.00;;;;;16.82;70.86;100967.47;6267050;22;49831;-82
2022/11/09 12:27:09;;;;;;;;;3.00;2.00;;;;;17.25;70.50;101020.44;6270509;22;49589;-78
2022/11/09 12:29:46;;;;;;;;;2.50;1.75;;;;;17.64;68.70;101079.59;6272325;22;49906;-81
2022/11/09 12:32:27;;;;;;;;;1.00;1.00;;;;;17.75;68.52;101077.81;6267828;22;49830;-83
2022/11/09 12:35:14;;;;;;;;;7.25;6.50;;;;;17.84;68.86;101080.44;6269844;22;49754;-74
2022/11/09 12:37:51;;;;;;;;;2.00;2.00;;;;;17.73;68.79;101045.97;6271763;22;49625;-78
2022/11/09 12:40:23;;;;;;;;;7.50;5.25;;;;;17.23;68.55;100963.84;6264870;22;50790;-77
2022/11/09 12:43:15;;;;;;;;;3.25;3.25;;;;;18.10;68.11;101072.38;6269193;22;49506;-75
2022/11/09 12:45:42;;;;;;;;;7.00;5.75;;;;;17.26;67.58;100925.78;6269689;22;49812;-74
2022/11/09 12:48:34;;;;;;;;;3.00;3.00;;;;;17.32;67.09;100939.06;6270861;22;49681;-73
2022/11/09 12:51:03;;;;;;;;;4.00;2.00;;;;;17.09;66.07;100937.38;6266453;22;50529;-75
2022/11/09 12:53:33;;;;;;;;;3.75;2.25;;;;;17.41;65.60;100954.94;6266692;22;49718;-76
2022/11/09 12:56:18;;;;;;;;;3.50;3.25;;;;;18.00;64.91;101065.31;6269182;22;49777;-75
2022/11/09 12:58:44;;;;;;;;;2.75;1.75;;;;;18.06;64.12;101073.28;6272840;22;49973;-74
2022/11/09 13:01:32;;;;;;;;;4.25;3.75;;;;;17.30;64.23;100947.03;6267451;22;49704;-75
2022/11/09 13:04:00;;;;;;;;;5.25;5.25;;;;;17.94;64.02;101063.56;6275920;22;49771;-74
2022/11/09 13:06:27;;;;;;;;;5.00;4.00;;;;;18.12;64.08;101088.28;6271643;22;49797;-75
2022/11/09 13:09:01;;;;;;;;;2.50;2.50;;;;;18.05;63.98;101095.44;6268204;22;49743;-75
2022/11/09 13:11:45;;;;;;;;;4.00;1.00;;;;;18.00;64.19;101098.09;6268474;22;49772;-73
2022/11/09 13:14:35;;;;;;;;;1.00;1.00;;;;;17.86;64.22;101076.03;6265196;22;49831;-72
2022/11/09 13:17:23;;;;;;;;;3.00;2.00;;;;;17.70;63.80;101045.09;6265696;22;49827;-72
2022/11/09 13:19:52;;;;;;;;;0.50;0.50;;;;;17.97;62.85;101086.59;6269064;22;49682;-70
2022/11/09 13:22:24;;;;;;;;;4.00;3.25;;;;;17.93;61.87;101106.09;6267340;22;50722;-70
2022/11/09 13:24:52;;;;;;;;;0.50;0.50;;;;;17.71;62.71;101070.75;6266390;22;50269;-69
2022/11/09 13:27:46;;;;;;;;;1.00;1.00;;;;;17.86;61.49;101102.59;6267416;22;49749;-70
2022/11/09 13:30:23;;;;;;;;;0.00;0.00;;;;;17.82;61.50;101097.28;6269532;22;49574;-71
2022/11/09 13:33:04;;;;;;;;;0.00;0.00;;;;;17.77;61.77;101101.75;6269143;22;50088;-70
2022/11/09 13:35:39;;;;;;;;;2.00;1.50;;;;;17.78;61.70;101106.16;6265511;22;49841;-68
2022/11/09 13:38:15;;;;;;;;;1.25;1.25;;;;;17.65;61.33;101095.50;6266390;22;49579;-69
2022/11/09 13:41:20;;;;;;;;;0.00;0.00;;;;;17.64;61.11;101114.09;6265747;22;49779;-72
2022/11/09 13:43:46;;;;;;;;;0.00;0.00;;;;;17.61;61.28;101116.78;6266515;22;50355;-71
2022/11/09 13:46:32;;;;;;;;;0.00;0.00;;;;;17.60;61.19;101110.59;6265182;22;49758;-75
2022/11/09 13:48:57;;;;;;;;;0.50;0.00;;;;;16.15;61.40;100895.06;6264377;22;49844;-76
2022/11/09 13:51:36;;;;;;;;;0.25;0.25;;;;;17.46;61.46;101123.00;6265514;22;49960;-77
2022/11/09 13:54:03;;;;;;;;;1.75;0.25;;;;;17.42;62.36;101116.81;6266032;22;50848;-79
2022/11/09 13:56:38;;;;;;;;;2.00;0.00;;;;;17.32;61.69;101146.03;6265864;22;50034;-78
2022/11/09 13:59:20;;;;;;;;;1.00;1.00;;;;;17.17;62.14;101100.03;6266422;22;50115;-79
2022/11/09 14:01:52;;;;;;;;;1.50;1.00;;;;;16.31;61.67;100947.16;6267092;22;49633;-80
2022/11/09 14:04:24;;;;;;;;;5.75;2.00;;;;;16.40;61.18;100973.63;6265733;22;49779;-78
2022/11/09 14:06:58;;;;;;;;;1.00;1.00;;;;;17.27;61.43;101161.03;6266776;22;49571;-76
2022/11/09 14:09:23;;;;;;;;;0.00;0.00;;;;;17.23;61.70;101152.22;6264872;22;49559;-82
2022/11/09 14:12:47;;;;;;;;;2.00;1.50;;;;;17.05;62.06;101139.81;6265496;22;49759;-81
2022/11/09 14:15:23;;;;;;;;;2.00;2.00;;;;;17.19;61.64;101144.28;6140197;23;50545;-83
2022/11/09 14:18:10;;;;;;;;;1.00;1.00;;;;;16.41;61.69;101017.81;6245998;22;50403;-82
2022/11/09 14:20:41;;;;;;;;;0.75;0.50;;;;;15.87;61.17;100955.03;6266077;22;49976;-84
2022/11/09 14:23:18;;;;;;;;;2.50;1.50;;;;;16.25;61.00;101043.41;6266581;22;49693;-83
2022/11/09 14:25:44;;;;;;;;;1.75;1.00;;;;;16.96;61.12;101158.38;6264847;22;50739;-82
2022/11/09 14:28:31;;;;;;;;;1.00;1.00;;;;;16.78;61.35;101153.06;6265203;22;50115;-86
2022/11/09 14:30:57;;;;;;;;;1.00;0.75;;;;;16.36;62.17;101096.41;6266900;22;49850;-82
2022/11/09 14:33:23;;;;;;;;;0.25;0.00;;;;;16.95;61.44;101169.00;6266594;22;49517;-77
2022/11/09 14:35:51;;;;;;;;;1.00;1.00;;;;;16.31;62.13;101058.44;6264744;22;50768;-76
2022/11/09 14:38:26;;;;;;;;;1.50;1.50;;;;;16.92;62.09;101180.50;6268931;22;49881;-77
2022/11/09 14:40:52;;;;;;;;;0.00;0.00;;;;;15.32;60.65;100928.38;6266485;22;49716;-78
2022/11/09 14:43:28;;;;;;;;;1.00;1.00;;;;;16.86;61.03;101207.88;6268556;22;49490;-75
2022/11/09 14:45:59;;;;;;;;;0.00;0.00;;;;;16.21;60.59;101076.06;6267334;22;49745;-77
2022/11/09 14:48:26;;;;;;;;;1.00;0.25;;;;;15.72;60.90;101003.50;6267226;22;50030;-76
2022/11/09 14:50:55;;;;;;;;;2.00;2.00;;;;;16.51;61.33;101140.63;6267003;22;49834;-76
2022/11/09 14:53:31;;;;;;;;;1.00;0.00;;;;;16.82;61.38;101195.50;6268092;22;49858;-75
2022/11/09 14:56:00;;;;;;;;;1.50;1.00;;;;;15.88;61.50;101058.28;6269913;22;50601;-76
2022/11/09 14:58:27;;;;;;;;;0.00;0.00;;;;;16.84;61.27;101198.16;6269552;22;49669;-76
2022/11/09 15:01:28;;;;;;;;;2.00;2.00;;;;;15.63;61.04;100998.19;6268423;22;49500;-76
2022/11/09 15:04:13;;;;;;;;;2.00;2.00;;;;;16.81;61.17;101199.03;6150912;23;49809;-71
2022/11/09 15:06:49;;;;;;;;;1.00;0.00;;;;;16.79;60.57;101222.03;6260475;22;50405;-72
2022/11/09 15:09:19;;;;;;;;;1.00;1.00;;;;;15.59;60.91;101020.19;6268762;22;49856;-73
2022/11/09 15:11:46;;;;;;;;;1.25;1.00;;;;;16.55;60.67;101190.09;6265804;22;49884;-72
2022/11/09 15:14:11;;;;;;;;;1.50;1.25;;;;;16.59;61.07;101216.59;6267869;22;49499;-73
2022/11/09 15:16:37;;;;;;;;;0.75;0.75;;;;;15.86;61.73;101101.53;6266063;22;49735;-74
2022/11/09 15:19:02;;;;;;;;;1.00;1.00;;;;;16.54;61.78;101225.44;6266334;22;49707;-74
2022/11/09 15:21:39;;;;;;;;;0.00;0.00;;;;;14.90;61.69;100980.16;6265894;22;49942;-74
2022/11/09 15:24:16;;;;;;;;;0.00;0.00;;;;;16.41;62.29;101236.88;6265774;22;49811;-73
2022/11/09 15:26:45;;;;;;;;;0.50;0.00;;;;;16.37;62.68;101240.38;6263867;22;51290;-74
2022/11/09 15:29:37;;;;;;;;;1.75;1.75;;;;;16.22;63.09;101222.66;6264691;22;49759;-74
2022/11/09 15:32:13;;;;;;;;;1.75;1.75;;;;;16.28;63.70;101241.19;6265876;22;49661;-75
2022/11/09 15:34:50;;;;;;;;;2.25;1.00;;;;;16.12;63.79;101234.06;6264989;22;49987;-73
2022/11/09 15:37:36;;;;;;;;;0.50;0.00;;;;;14.98;63.76;101057.75;6264496;22;50895;-74
2022/11/09 15:40:05;;;;;;;;;0.00;0.00;;;;;16.09;63.49;101249.94;6263810;22;49802;-74
2022/11/09 15:42:30;;;;;;;;;1.00;1.00;;;;;15.78;63.66;101194.13;6263985;22;49894;-73
2022/11/09 15:44:58;;;;;;;;;2.00;1.75;;;;;15.98;63.36;101248.09;6264898;22;50079;-73
2022/11/09 15:47:34;;;;;;;;;1.75;1.75;;;;;15.98;63.08;101256.03;6264574;22;49735;-74
2022/11/09 15:50:06;;;;;;;;;0.00;0.00;;;;;15.93;63.64;101255.16;6263794;22;49668;-73
2022/11/09 15:52:31;;;;;;;;;3.00;3.00;;;;;14.30;63.67;101002.53;6262995;22;49636;-73
2022/11/09 15:54:57;;;;;;;;;3.25;1.25;;;;;15.41;64.05;101208.81;6262165;22;49696;-73
2022/11/09 15:57:23;;;;;;;;;2.00;1.75;;;;;14.92;63.88;101112.31;6262526;22;49683;-75
2022/11/09 15:59:50;;;;;;;;;2.75;0.00;;;;;15.61;64.66;101246.06;6263350;22;49545;-74
2022/11/09 16:02:17;;;;;;;;;0.75;0.75;;;;;15.71;64.82;101272.59;6265098;22;50104;-74
2022/11/09 16:04:43;;;;;;;;;0.75;0.75;;;;;15.49;64.71;101259.16;6267720;22;49863;-74
2022/11/09 16:07:13;;;;;;;;;0.00;0.00;;;;;14.69;65.02;101113.00;6267831;22;50617;-74
2022/11/09 16:09:39;;;;;;;;;0.25;0.25;;;;;15.33;65.57;101236.97;6267522;22;49628;-74
2022/11/09 16:12:05;;;;;;;;;3.50;1.50;;;;;14.86;65.48;101181.88;6266468;22;49706;-75
2022/11/09 16:14:31;;;;;;;;;1.25;1.00;;;;;15.54;66.00;101297.13;6266138;22;49719;-74
2022/11/09 16:16:57;;;;;;;;;1.00;0.00;;;;;15.50;66.33;101298.88;6267115;22;49841;-74
2022/11/09 16:19:22;;;;;;;;;2.00;1.00;;;;;14.64;66.42;101193.97;6266666;22;49643;-76
2022/11/09 16:21:51;;;;;;;;;3.00;2.00;;;;;15.42;66.98;101314.66;6266448;22;49705;-77
2022/11/09 16:24:16;;;;;;;;;1.25;1.00;;;;;15.38;67.01;101319.91;6266505;22;49826;-76
2022/11/09 16:26:41;;;;;;;;;2.25;2.00;;;;;13.83;67.07;101066.25;6266932;22;51196;-76
2022/11/09 16:29:06;;;;;;;;;2.00;1.25;;;;;15.28;67.35;101342.75;6267063;22;49530;-76
2022/11/09 16:31:32;;;;;;;;;0.00;0.00;;;;;13.86;67.46;101110.25;6267561;22;49473;-77
2022/11/09 16:33:57;;;;;;;;;2.25;1.00;;;;;14.95;68.10;101306.22;6267309;22;49534;-76
2022/11/09 16:36:24;;;;;;;;;4.25;2.00;;;;;15.16;68.25;101343.50;6266458;22;50687;-76
2022/11/09 16:38:52;;;;;;;;;1.00;1.00;;;;;15.10;68.10;101347.81;6267020;22;49605;-76
2022/11/09 16:41:19;;;;;;;;;1.00;1.00;;;;;14.99;68.63;101362.69;6266858;22;49684;-77
2022/11/09 16:43:47;;;;;;;;;1.75;1.75;;;;;13.99;68.41;101184.38;6267280;22;49765;-77
2022/11/09 16:46:19;;;;;;;;;4.25;3.00;;;;;14.71;68.56;101305.94;6267273;22;49760;-77
2022/11/09 16:48:45;;;;;;;;;3.25;3.00;;;;;14.67;68.55;101309.38;6267009;22;49899;-81
2022/11/09 16:51:11;;;;;;;;;3.50;2.75;;;;;14.92;68.63;101369.63;6266755;22;49633;-77
2022/11/09 16:53:36;;;;;;;;;3.75;2.25;;;;;14.89;69.04;101380.19;6267462;22;49988;-78
2022/11/09 16:56:01;;;;;;;;;1.00;1.00;;;;;14.19;69.06;101261.19;6265635;22;49942;-78
2022/11/09 16:58:27;;;;;;;;;3.50;2.00;;;;;14.72;69.10;101402.84;6267365;22;49815;-79
2022/11/09 17:00:52;;;;;;;;;3.00;3.00;;;;;14.18;69.20;101295.47;6266575;22;49722;-79
2022/11/09 17:03:18;;;;;;;;;2.50;2.50;;;;;13.35;69.37;101143.84;6267486;22;49644;-78
2022/11/09 17:05:43;;;;;;;;;4.50;3.00;;;;;14.76;69.91;101394.97;6266122;22;50589;-79
2022/11/09 17:08:09;;;;;;;;;3.00;2.00;;;;;13.76;69.71;101228.00;6265986;22;49973;-77
2022/11/09 17:10:44;;;;;;;;;1.75;1.75;;;;;14.68;69.91;101406.31;6249660;22;50182;-77
2022/11/09 17:13:11;;;;;;;;;3.00;3.00;;;;;14.66;69.94;101408.91;6257337;22;50008;-75
2022/11/09 17:15:43;;;;;;;;;4.00;3.00;;;;;14.59;70.44;101407.97;6259181;22;50153;-76
2022/11/09 17:18:10;;;;;;;;;2.75;2.75;;;;;14.49;70.92;101406.06;6257103;22;50046;-76
2022/11/09 17:20:49;;;;;;;;;4.00;3.00;;;;;14.43;70.69;101407.66;6258194;22;49648;-76
2022/11/09 17:23:17;;;;;;;;;4.25;3.50;;;;;14.36;71.31;101400.50;6258159;22;49750;-76
2022/11/09 17:26:00;;;;;;;;;10.50;4.50;;;;;14.36;71.54;101411.97;6259853;22;50674;-76
2022/11/09 17:28:26;;;;;;;;;5.00;3.75;;;;;14.44;71.48;101423.53;6265949;22;49857;-76
2022/11/09 17:30:51;;;;;;;;;1.25;1.25;;;;;14.31;71.99;101417.19;6264666;22;49752;-75
2022/11/09 17:33:17;;;;;;;;;3.00;3.00;;;;;14.31;71.78;101426.88;6266888;22;49498;-76
2022/11/09 17:35:44;;;;;;;;;4.00;2.25;;;;;14.33;72.45;101459.47;6266236;22;51115;-76
2022/11/09 17:38:09;;;;;;;;;3.00;3.00;;;;;13.72;72.53;101355.47;6265855;22;49703;-76
2022/11/09 17:40:34;;;;;;;;;4.00;3.00;;;;;14.16;72.92;101442.44;6265036;22;49739;-76
2022/11/09 17:43:00;;;;;;;;;4.25;4.25;;;;;14.22;73.38;101477.78;6265701;22;50215;-76
2022/11/09 17:45:25;;;;;;;;;4.25;4.00;;;;;14.16;73.85;101464.44;6265141;22;49727;-76
2022/11/09 17:47:51;;;;;;;;;5.25;4.00;;;;;13.69;73.92;101419.63;6264721;22;51541;-76
2022/11/09 17:50:20;;;;;;;;;6.50;4.75;;;;;14.14;74.07;101479.38;6264288;22;49827;-74
2022/11/09 17:52:45;;;;;;;;;4.00;4.00;;;;;14.12;74.78;101485.50;6268516;22;49788;-74
2022/11/09 17:55:10;;;;;;;;;4.50;3.25;;;;;14.10;74.63;101496.03;6272591;22;49824;-74
2022/11/09 17:57:36;;;;;;;;;6.50;4.50;;;;;14.08;75.37;101499.50;6265145;22;55130;-74
2022/11/09 18:00:05;;;;;;;;;6.75;5.25;;;;;13.89;75.28;101477.16;6266154;22;57229;-73
2022/11/09 18:02:30;;;;;;;;;4.50;4.50;;;;;13.81;75.39;101466.47;6264955;22;49707;-74
2022/11/09 18:04:56;;;;;;;;;6.75;4.75;;;;;13.99;75.74;101510.78;6266192;22;49787;-76
2022/11/09 18:07:21;;;;;;;;;4.50;4.50;;;;;13.80;75.97;101487.53;6266284;22;49698;-73
2022/11/09 18:09:46;;;;;;;;;9.25;6.00;;;;;13.95;76.01;101519.50;6266567;22;60247;-74
2022/11/09 18:12:14;;;;;;;;;4.00;4.00;;;;;13.68;76.00;101475.88;6266589;22;52505;-75
2022/11/09 18:14:40;;;;;;;;;5.50;2.75;;;;;13.90;76.65;101522.06;6266646;22;51365;-74
2022/11/09 18:17:05;;;;;;;;;5.25;5.00;;;;;13.72;76.57;101490.94;6266984;22;49645;-75
2022/11/09 18:19:31;;;;;;;;;5.00;3.00;;;;;13.70;76.63;101497.94;6266311;22;51514;-71
2022/11/09 18:21:57;;;;;;;;;5.25;5.25;;;;;13.51;76.77;101463.22;6267205;22;49518;-74
2022/11/09 18:24:22;;;;;;;;;5.00;5.00;;;;;13.84;76.91;101531.63;6264305;22;52425;-72
2022/11/09 18:26:47;;;;;;;;;4.50;4.00;;;;;13.81;77.09;101532.44;6265830;22;62810;-73
2022/11/09 18:29:12;;;;;;;;;13.00;10.50;;;;;13.77;77.07;101533.22;6266987;22;49704;-74
2022/11/09 18:31:38;;;;;;;;;12.50;9.75;;;;;13.73;77.70;101537.56;6266133;22;56325;-73
2022/11/09 18:34:04;;;;;;;;;8.75;8.75;;;;;13.72;77.44;101543.72;6265955;22;61640;-73
2022/11/09 18:36:32;;;;;;;;;6.75;6.75;;;;;13.65;77.60;101544.44;6267108;22;49821;-72
2022/11/09 18:38:57;;;;;;;;;8.75;7.50;;;;;13.67;78.12;101555.00;6266555;22;49644;-71
2022/11/09 18:41:24;;;;;;;;;7.75;6.00;;;;;13.37;78.24;101515.69;6264679;22;49857;-75
2022/11/09 18:43:50;;;;;;;;;8.25;7.00;;;;;13.55;78.57;101542.47;6266600;22;50615;-72
2022/11/09 18:46:18;;;;;;;;;10.50;8.25;;;;;13.55;78.34;101567.97;6266584;22;49836;-72
2022/11/09 18:48:43;;;;;;;;;7.25;6.25;;;;;13.28;78.55;101519.03;6266830;22;49611;-72
2022/11/09 18:51:10;;;;;;;;;6.75;6.75;;;;;13.44;79.09;101552.78;6266907;22;49753;-75
2022/11/09 18:53:40;;;;;;;;;10.00;7.50;;;;;13.50;79.23;101570.47;6264710;22;50751;-73
2022/11/09 18:56:17;;;;;;;;;7.50;6.50;;;;;13.49;79.70;101578.38;6265065;22;49657;-79
2022/11/09 18:58:47;;;;;;;;;8.25;8.25;;;;;13.41;79.30;101568.56;6264841;22;49774;-75
2022/11/09 19:01:13;;;;;;;;;9.25;8.00;;;;;13.45;79.73;101582.69;6266946;22;49703;-77
2022/11/09 19:03:38;;;;;;;;;11.75;10.00;;;;;13.20;79.73;101548.72;6264766;22;51752;-79